Narsaq

KL  EN  DA
ASIAQ
Weather Now GREENLAND SURVEY
Updated [WGT/WGST] Temperature [°C] Wind [m/s] Air pressure [hPa] Relative humidity [%] Precipitation [mm]
Present Wind chill Speed Max
30.11 17:00-0,60,00,7 ⇓1,898799n/a
30.11 16:00-0,50,00,4 ⇓1,898699n/a
30.11 15:00-0,60,00,1 ⇐0,698699n/a
30.11 14:00-0,70,00,3 ⇙1,0985100n/a
30.11 13:00-0,60,00,0 ⇓0,0986100n/a
30.11 12:00-0,40,00,0 ⇓0,0986100n/a
30.11 11:00-0,40,00,1 ⇘0,8987100n/a
30.11 10:00-0,50,00,4 ⇒1,5988100n/a
30.11 09:00-0,80,00,0 ⇓0,0988100n/a
30.11 08:00-1,00,00,4 ⇘2,3989100n/a
30.11 07:00-0,6-2,41,5 ⇘4,0990100n/a
30.11 06:00-0,8-2,91,6 ⇗3,0991100n/a
30.11 05:00-1,7-3,71,5 ⇑3,099299n/a
30.11 04:00-2,5-5,31,9 ⇑4,199397n/a
30.11 03:00-1,0-2,61,4 ⇗3,999475n/a
30.11 02:00-2,50,01,2 ⇙3,699663n/a
30.11 01:00-2,5-6,02,5 ⇐5,999965n/a
30.11 00:00-3,10,00,7 ⇖2,1100063n/a
29.11 23:00-3,80,00,6 ⇐1,4100369n/a
29.11 22:00-3,3-5,41,5 ⇙2,0100662n/a
29.11 21:00-3,30,00,7 ⇐1,5100663n/a
29.11 20:00-3,70,01,2 ⇐1,9100767n/a
29.11 19:00-4,40,01,3 ⇐2,3100773n/a
29.11 18:00-4,20,00,6 ⇖1,6100874n/a
29.11 17:00-4,6-7,11,6 ⇐2,5100975n/a
Position: (60.91702778,-46.05905556)

[Back]